Time;durP1;ratioP1;P1;durP2;ratioP2;P2;SDS_P1;SDS_P2;PMS_P1;PMS_P2;Temp;Humidity;BMP_temperature;BMP_pressure;BME280_temperature;BME280_humidity;BME280_pressure;Samples;Min_cycle;Max_cycle;Signal;HPM_P1;HPM_P2
2021/08/06 00:01:51;;;;;;;1.50;1.10;;;16.30;99.90;;;;;;6262818;28;20486;-61
2021/08/06 00:04:56;;;;;;;1.37;1.03;;;16.20;99.90;;;;;;6251100;28;21003;-63
2021/08/06 00:08:01;;;;;;;1.27;1.00;;;16.10;99.90;;;;;;6251956;28;20471;-61
2021/08/06 00:11:04;;;;;;;3.13;1.17;;;16.10;99.90;;;;;;6251372;28;20474;-62
2021/08/06 00:14:08;;;;;;;1.17;0.90;;;16.20;99.90;;;;;;6251423;28;20463;-62
2021/08/06 00:17:11;;;;;;;2.00;1.00;;;16.20;99.90;;;;;;6246830;28;20467;-62
2021/08/06 00:20:15;;;;;;;1.50;1.40;;;16.20;99.90;;;;;;6251403;28;20482;-62
2021/08/06 00:23:19;;;;;;;2.20;1.17;;;16.30;99.90;;;;;;6254037;28;20470;-62
2021/08/06 00:26:22;;;;;;;2.17;1.00;;;16.20;99.90;;;;;;6250945;28;20991;-62
2021/08/06 00:29:26;;;;;;;2.40;1.13;;;16.20;99.90;;;;;;6266968;28;20466;-61
2021/08/06 00:32:29;;;;;;;3.60;1.17;;;16.10;99.90;;;;;;6275227;28;20967;-62
2021/08/06 00:35:32;;;;;;;2.00;1.00;;;16.10;99.90;;;;;;6270824;28;20515;-62
2021/08/06 00:38:36;;;;;;;1.93;1.20;;;16.00;99.90;;;;;;6275547;28;20477;-62
2021/08/06 00:41:39;;;;;;;1.90;1.00;;;16.00;99.90;;;;;;6275285;28;20486;-62
2021/08/06 00:44:43;;;;;;;1.33;1.23;;;16.00;99.90;;;;;;6274892;28;20481;-63
2021/08/06 00:47:46;;;;;;;1.77;1.27;;;15.90;99.90;;;;;;6274491;28;20802;-61
2021/08/06 00:50:51;;;;;;;2.60;1.40;;;16.00;99.90;;;;;;6274381;28;20535;-62
2021/08/06 00:53:55;;;;;;;2.00;1.37;;;15.90;99.90;;;;;;6279463;28;21731;-63
2021/08/06 00:56:59;;;;;;;1.47;1.37;;;16.00;99.90;;;;;;6282318;28;20469;-63
2021/08/06 01:00:02;;;;;;;1.70;1.50;;;16.00;99.90;;;;;;6281788;28;20500;-62
2021/08/06 01:03:10;;;;;;;1.37;1.27;;;15.90;99.90;;;;;;6275077;28;20485;-62
2021/08/06 01:06:21;;;;;;;3.13;1.20;;;15.90;99.90;;;;;;6274465;28;20600;-62
2021/08/06 01:09:35;;;;;;;1.63;1.53;;;15.80;99.90;;;;;;6274795;28;20470;-63
2021/08/06 01:12:44;;;;;;;2.17;1.00;;;15.70;99.90;;;;;;6274504;28;20469;-62
2021/08/06 01:15:52;;;;;;;2.87;1.57;;;15.70;99.90;;;;;;6273783;28;20482;-63
2021/08/06 01:19:00;;;;;;;1.83;1.30;;;15.60;99.90;;;;;;6274283;28;20550;-63
2021/08/06 01:22:13;;;;;;;1.43;1.30;;;15.60;99.90;;;;;;6274704;28;20477;-63
2021/08/06 01:25:39;;;;;;;2.60;1.57;;;15.70;99.90;;;;;;6274363;28;20478;-64
2021/08/06 01:28:44;;;;;;;1.90;1.70;;;15.80;99.90;;;;;;6274627;28;20773;-63
2021/08/06 01:31:49;;;;;;;1.77;1.30;;;15.70;99.90;;;;;;6274284;28;20485;-64
2021/08/06 01:34:52;;;;;;;2.83;1.60;;;15.60;99.90;;;;;;6274407;28;20547;-63
2021/08/06 01:37:55;;;;;;;3.20;1.93;;;15.70;99.90;;;;;;6274184;28;20481;-63
2021/08/06 01:41:13;;;;;;;1.40;1.30;;;15.70;99.90;;;;;;6274290;28;20472;-65
2021/08/06 01:44:22;;;;;;;5.93;1.47;;;15.70;99.90;;;;;;6273934;28;20991;-63
2021/08/06 01:47:29;;;;;;;2.40;1.90;;;15.70;99.90;;;;;;6274289;28;20489;-64
2021/08/06 01:50:35;;;;;;;1.50;1.40;;;15.70;99.90;;;;;;6273830;28;20495;-63
2021/08/06 01:53:44;;;;;;;1.67;1.57;;;15.60;99.90;;;;;;6274392;28;20816;-63
2021/08/06 01:56:51;;;;;;;4.60;1.50;;;15.60;99.90;;;;;;6274209;28;20466;-63
2021/08/06 01:59:55;;;;;;;4.17;1.67;;;15.40;99.90;;;;;;6274111;28;20478;-63
2021/08/06 02:02:59;;;;;;;1.93;1.83;;;15.30;99.90;;;;;;6275778;28;20578;-63
2021/08/06 02:06:02;;;;;;;2.23;1.60;;;15.30;99.90;;;;;;6279033;28;20997;-64
2021/08/06 02:09:05;;;;;;;2.70;1.40;;;15.30;99.90;;;;;;6278735;28;20477;-63
2021/08/06 02:12:10;;;;;;;1.50;1.40;;;15.30;99.90;;;;;;6279211;28;20470;-63
2021/08/06 02:15:15;;;;;;;2.07;1.50;;;15.30;99.90;;;;;;6278630;28;20811;-63
2021/08/06 02:18:22;;;;;;;2.50;1.50;;;15.30;99.90;;;;;;6278876;28;20982;-63
2021/08/06 02:21:27;;;;;;;2.60;2.03;;;15.30;99.90;;;;;;6278339;28;20466;-63
2021/08/06 02:24:33;;;;;;;3.07;1.77;;;15.30;99.90;;;;;;6278673;28;20504;-63
2021/08/06 02:27:39;;;;;;;2.30;1.50;;;15.30;99.90;;;;;;6278235;28;20474;-63
2021/08/06 02:30:43;;;;;;;1.97;1.80;;;15.30;99.90;;;;;;6278433;28;20543;-63
2021/08/06 02:33:47;;;;;;;2.97;1.90;;;15.40;99.90;;;;;;6278523;28;20564;-63
2021/08/06 02:36:52;;;;;;;1.73;1.60;;;15.30;99.90;;;;;;6278207;28;20478;-63
2021/08/06 02:39:55;;;;;;;2.20;1.97;;;15.30;99.90;;;;;;6278506;28;20474;-63
2021/08/06 02:43:01;;;;;;;1.70;1.60;;;15.30;99.90;;;;;;6278078;28;21008;-63
2021/08/06 02:46:04;;;;;;;2.00;1.80;;;15.30;99.90;;;;;;6278405;28;20507;-64
2021/08/06 02:49:08;;;;;;;1.40;1.30;;;15.30;99.90;;;;;;6277857;28;21026;-63
2021/08/06 02:52:11;;;;;;;1.73;1.63;;;15.30;99.90;;;;;;6278748;28;20481;-62
2021/08/06 02:55:14;;;;;;;2.13;1.93;;;15.30;99.90;;;;;;6277604;28;20465;-63
2021/08/06 02:58:20;;;;;;;3.13;2.10;;;15.30;99.90;;;;;;6277967;28;20442;-62
2021/08/06 03:01:23;;;;;;;1.60;1.50;;;15.30;99.90;;;;;;6277710;28;20438;-64
2021/08/06 03:04:27;;;;;;;1.80;1.50;;;15.20;99.90;;;;;;6277746;28;20461;-63
2021/08/06 03:07:30;;;;;;;1.70;1.60;;;15.20;99.90;;;;;;6277366;28;20515;-63
2021/08/06 03:10:35;;;;;;;2.20;1.83;;;15.20;99.90;;;;;;6277906;28;20549;-63
2021/08/06 03:13:39;;;;;;;2.23;1.90;;;15.20;99.90;;;;;;6276767;28;20608;-63
2021/08/06 03:16:42;;;;;;;2.27;1.87;;;15.20;99.90;;;;;;6277199;28;20476;-63
2021/08/06 03:19:46;;;;;;;4.33;1.90;;;15.10;99.90;;;;;;6277611;28;20470;-62
2021/08/06 03:22:51;;;;;;;1.77;1.67;;;15.10;99.90;;;;;;6277007;28;20783;-63
2021/08/06 03:25:54;;;;;;;3.70;2.00;;;15.10;99.90;;;;;;6277446;28;20478;-62
2021/08/06 03:28:58;;;;;;;1.50;1.40;;;15.00;99.90;;;;;;6272614;28;20466;-64
2021/08/06 03:32:01;;;;;;;3.40;2.03;;;15.00;99.90;;;;;;6276925;28;20994;-63
2021/08/06 03:35:06;;;;;;;2.63;1.70;;;14.90;99.90;;;;;;6276897;28;20486;-63
2021/08/06 03:38:14;;;;;;;3.47;2.17;;;14.90;99.90;;;;;;6275673;28;20612;-63
2021/08/06 03:41:18;;;;;;;3.00;2.07;;;15.00;99.90;;;;;;6274784;28;20470;-63
2021/08/06 03:44:22;;;;;;;1.90;1.80;;;15.00;99.90;;;;;;6274800;28;20493;-63
2021/08/06 03:47:25;;;;;;;3.10;2.50;;;15.00;99.90;;;;;;6274604;28;20470;-64
2021/08/06 03:50:29;;;;;;;3.70;1.90;;;15.00;99.90;;;;;;6274854;28;20564;-64
2021/08/06 03:53:32;;;;;;;2.73;2.20;;;15.00;99.90;;;;;;6275617;28;20492;-63
2021/08/06 03:56:35;;;;;;;2.57;2.33;;;15.00;99.90;;;;;;6276639;28;20993;-64
2021/08/06 03:59:39;;;;;;;5.37;2.00;;;15.10;99.90;;;;;;6276351;28;20473;-63
2021/08/06 04:02:44;;;;;;;1.70;1.60;;;15.10;99.90;;;;;;6276243;28;20466;-63
2021/08/06 04:05:48;;;;;;;2.47;2.27;;;15.10;99.90;;;;;;6276256;28;20480;-61
2021/08/06 04:08:51;;;;;;;2.80;2.07;;;15.10;99.90;;;;;;6276347;28;20466;-61
2021/08/06 04:11:54;;;;;;;2.07;1.83;;;15.20;99.90;;;;;;6275962;28;20481;-63
2021/08/06 04:14:58;;;;;;;2.50;2.00;;;15.20;99.90;;;;;;6275508;28;20481;-64
2021/08/06 04:18:02;;;;;;;2.90;1.80;;;15.20;99.90;;;;;;6276168;28;20470;-62
2021/08/06 04:21:05;;;;;;;4.27;1.90;;;15.30;99.90;;;;;;6275713;28;20501;-62
2021/08/06 04:24:08;;;;;;;2.93;2.10;;;15.20;99.90;;;;;;6276165;28;20469;-62
2021/08/06 04:27:11;;;;;;;2.00;1.90;;;15.20;99.90;;;;;;6275286;28;20470;-62
2021/08/06 04:30:16;;;;;;;3.23;2.30;;;15.20;99.90;;;;;;6275858;28;20838;-62
2021/08/06 04:33:19;;;;;;;2.83;2.30;;;15.20;99.90;;;;;;6275052;28;20485;-62
2021/08/06 04:36:22;;;;;;;3.73;2.27;;;15.20;99.90;;;;;;6275724;28;20817;-62
2021/08/06 04:39:25;;;;;;;3.23;2.50;;;15.20;99.90;;;;;;6275140;28;20527;-62
2021/08/06 04:42:29;;;;;;;3.97;2.00;;;15.40;99.90;;;;;;6275774;28;20468;-62
2021/08/06 04:45:33;;;;;;;3.73;2.57;;;15.50;99.90;;;;;;6275126;28;21002;-62
2021/08/06 04:48:36;;;;;;;2.43;2.10;;;15.60;99.90;;;;;;6275393;28;20482;-62
2021/08/06 04:51:40;;;;;;;4.50;2.57;;;15.70;99.90;;;;;;6275053;28;20481;-66
2021/08/06 04:54:43;;;;;;;5.00;2.83;;;15.80;99.90;;;;;;6275144;28;20485;-67
2021/08/06 04:57:47;;;;;;;4.03;3.23;;;15.90;99.90;;;;;;6275370;28;20462;-62
2021/08/06 05:00:52;;;;;;;2.40;2.20;;;16.00;99.90;;;;;;6275164;28;20474;-62
2021/08/06 05:03:56;;;;;;;4.63;3.03;;;16.10;99.90;;;;;;6275132;28;20478;-62
2021/08/06 05:06:59;;;;;;;2.87;2.27;;;16.40;99.90;;;;;;6274465;28;20477;-62
2021/08/06 05:10:03;;;;;;;6.73;2.60;;;16.50;99.90;;;;;;6274719;28;20474;-63
2021/08/06 05:13:06;;;;;;;5.40;3.00;;;16.60;99.90;;;;;;6274300;28;20535;-64
2021/08/06 05:16:10;;;;;;;4.60;2.90;;;16.80;99.90;;;;;;6274553;28;20975;-62
2021/08/06 05:19:13;;;;;;;3.13;2.83;;;16.90;99.90;;;;;;6273679;28;20474;-63
2021/08/06 05:22:17;;;;;;;3.00;2.40;;;16.90;99.90;;;;;;6274284;28;20447;-62
2021/08/06 05:25:20;;;;;;;2.60;2.17;;;17.00;99.90;;;;;;6274693;28;20476;-63
2021/08/06 05:28:23;;;;;;;3.83;2.40;;;17.10;99.90;;;;;;6274668;28;20457;-62
2021/08/06 05:31:28;;;;;;;5.37;2.40;;;17.10;99.90;;;;;;6274148;28;20445;-64
2021/08/06 05:34:31;;;;;;;2.90;2.60;;;17.20;99.90;;;;;;6274715;28;20264;-64
2021/08/06 05:37:34;;;;;;;2.57;2.37;;;17.40;99.90;;;;;;6273535;28;20458;-63
2021/08/06 05:40:40;;;;;;;3.07;2.50;;;17.40;99.90;;;;;;6274067;28;20449;-64
2021/08/06 05:43:44;;;;;;;3.60;2.80;;;17.40;99.90;;;;;;6274266;28;20489;-63
2021/08/06 05:46:48;;;;;;;3.13;2.60;;;17.50;99.90;;;;;;6274176;28;20466;-63
2021/08/06 05:49:51;;;;;;;3.60;2.50;;;17.60;99.90;;;;;;6274455;28;20469;-63
2021/08/06 05:52:55;;;;;;;8.40;2.77;;;17.70;99.90;;;;;;6274054;28;20462;-63
2021/08/06 05:55:59;;;;;;;3.33;2.50;;;17.90;99.90;;;;;;6274075;28;20970;-63
2021/08/06 05:59:02;;;;;;;6.53;2.87;;;18.00;99.90;;;;;;6274117;28;20524;-63
2021/08/06 06:02:07;;;;;;;3.70;2.90;;;18.10;99.90;;;;;;6273947;28;20974;-63
2021/08/06 06:05:10;;;;;;;6.90;3.00;;;18.10;99.90;;;;;;6273235;28;20971;-63
2021/08/06 06:08:13;;;;;;;2.80;2.60;;;18.00;99.90;;;;;;6271862;28;20470;-64
2021/08/06 06:11:19;;;;;;;2.47;2.27;;;18.40;99.90;;;;;;6271536;28;20458;-63
2021/08/06 06:14:22;;;;;;;3.30;3.00;;;19.30;99.90;;;;;;6271185;28;20478;-63
2021/08/06 06:17:27;;;;;;;3.50;2.57;;;20.20;99.90;;;;;;6271902;28;20237;-64
2021/08/06 06:20:30;;;;;;;5.43;3.33;;;20.60;99.90;;;;;;6271386;28;20723;-63
2021/08/06 06:23:33;;;;;;;2.80;2.53;;;20.50;99.90;;;;;;6273855;28;20236;-63
2021/08/06 06:26:36;;;;;;;3.23;2.70;;;20.30;99.90;;;;;;6273656;28;20289;-64
2021/08/06 06:29:39;;;;;;;5.23;2.53;;;20.30;99.90;;;;;;6273512;28;20231;-63
2021/08/06 06:32:44;;;;;;;7.50;3.13;;;20.40;99.90;;;;;;6271564;28;20235;-64
2021/08/06 06:35:47;;;;;;;7.43;3.20;;;20.70;99.90;;;;;;6271582;28;20270;-63
2021/08/06 06:38:50;;;;;;;2.60;2.40;;;21.40;99.90;;;;;;6271086;28;20238;-63
2021/08/06 06:41:53;;;;;;;8.63;3.20;;;22.90;99.70;;;;;;6267150;28;20235;-64
2021/08/06 06:44:56;;;;;;;4.13;2.80;;;24.50;96.60;;;;;;6271055;28;20243;-64
2021/08/06 06:48:01;;;;;;;6.13;2.40;;;26.20;92.80;;;;;;6273003;28;20726;-64
2021/08/06 06:51:04;;;;;;;7.13;2.67;;;27.20;88.80;;;;;;6277430;28;20243;-64
2021/08/06 06:54:07;;;;;;;8.00;2.60;;;28.10;82.20;;;;;;6277857;28;20730;-64
2021/08/06 06:57:10;;;;;;;2.77;2.53;;;28.40;78.90;;;;;;6277777;28;20698;-64
2021/08/06 07:00:15;;;;;;;4.80;2.57;;;29.00;74.00;;;;;;6277356;28;20580;-65
2021/08/06 07:03:19;;;;;;;4.37;2.47;;;28.80;72.60;;;;;;6277475;28;20227;-65
2021/08/06 07:06:23;;;;;;;2.60;2.33;;;29.60;70.10;;;;;;6277284;28;20238;-65
2021/08/06 07:09:26;;;;;;;3.17;2.20;;;30.70;63.10;;;;;;6277345;28;20571;-64
2021/08/06 07:12:29;;;;;;;3.63;2.07;;;31.80;59.00;;;;;;6277101;28;20688;-64
2021/08/06 07:15:32;;;;;;;5.40;2.80;;;33.00;57.90;;;;;;6277004;28;20711;-65
2021/08/06 07:18:37;;;;;;;6.20;2.55;;;34.00;54.60;;;;;;6277015;28;20230;-64
2021/08/06 07:21:43;;;;;;;2.20;2.00;;;34.60;51.50;;;;;;6277089;28;20280;-65
2021/08/06 07:24:47;;;;;;;4.07;1.98;;;35.20;49.90;;;;;;6276886;28;20231;-65
2021/08/06 07:27:52;;;;;;;3.22;1.90;;;36.40;47.40;;;;;;6277088;28;20231;-65
2021/08/06 07:30:55;;;;;;;3.85;1.88;;;37.20;44.90;;;;;;6276641;28;20284;-65
2021/08/06 07:33:59;;;;;;;3.13;2.10;;;37.80;43.10;;;;;;6276675;28;20235;-65
2021/08/06 07:37:03;;;;;;;2.10;1.90;;;38.60;40.70;;;;;;6276317;28;20231;-64
2021/08/06 07:40:07;;;;;;;6.03;2.50;;;39.20;39.20;;;;;;6277230;28;20234;-65
2021/08/06 07:43:10;;;;;;;3.47;1.80;;;39.60;37.70;;;;;;6276322;28;20704;-65
2021/08/06 07:46:13;;;;;;;5.15;1.80;;;40.50;36.20;;;;;;6276335;28;20227;-65
2021/08/06 07:49:18;;;;;;;3.15;1.88;;;41.40;34.80;;;;;;6271176;28;20231;-65
2021/08/06 07:52:21;;;;;;;2.72;1.92;;;41.80;33.70;;;;;;6275881;28;20282;-65
2021/08/06 07:55:25;;;;;;;4.30;1.80;;;41.70;32.50;;;;;;6276214;28;20223;-65
2021/08/06 07:58:28;;;;;;;2.47;1.80;;;41.80;32.50;;;;;;6275826;28;20198;-65
2021/08/06 08:01:31;;;;;;;3.47;1.77;;;41.20;32.50;;;;;;6275289;28;20218;-65
2021/08/06 08:04:36;;;;;;;2.63;1.80;;;41.70;31.80;;;;;;6276038;28;20226;-65
2021/08/06 08:07:39;;;;;;;2.22;1.73;;;42.80;30.90;;;;;;6275817;28;20242;-65
2021/08/06 08:10:42;;;;;;;2.13;1.50;;;43.00;30.00;;;;;;6275301;28;20231;-65
2021/08/06 08:13:45;;;;;;;1.85;1.65;;;43.40;29.80;;;;;;6275531;28;20223;-65
2021/08/06 08:16:49;;;;;;;2.40;1.45;;;42.80;29.70;;;;;;6275643;28;20313;-65
2021/08/06 08:19:54;;;;;;;1.58;1.48;;;43.40;29.30;;;;;;6275644;28;20234;-65
2021/08/06 08:22:57;;;;;;;2.15;1.58;;;44.30;28.00;;;;;;6275117;28;20564;-64
2021/08/06 08:26:00;;;;;;;1.70;1.60;;;45.10;27.20;;;;;;6276242;28;20669;-66
2021/08/06 08:29:03;;;;;;;2.33;1.50;;;45.90;26.50;;;;;;6289310;28;20233;-65
2021/08/06 08:32:07;;;;;;;2.40;1.70;;;46.40;25.80;;;;;;6299799;28;20694;-64
2021/08/06 08:35:12;;;;;;;1.90;1.48;;;46.80;25.60;;;;;;6286406;28;20223;-64
2021/08/06 08:38:16;;;;;;;1.98;1.80;;;47.00;25.40;;;;;;6288647;28;20227;-65
2021/08/06 08:41:19;;;;;;;3.30;1.88;;;47.00;25.10;;;;;;6282793;28;20225;-64
2021/08/06 08:44:22;;;;;;;3.20;1.65;;;46.80;25.30;;;;;;6282403;28;20645;-64
2021/08/06 08:47:26;;;;;;;2.03;1.08;;;46.00;25.30;;;;;;6290424;28;20250;-64
2021/08/06 08:50:30;;;;;;;1.58;1.48;;;44.50;25.50;;;;;;6299288;28;20230;-65
2021/08/06 08:53:38;;;;;;;2.45;1.85;;;42.60;26.80;;;;;;6299517;28;20694;-64
2021/08/06 08:56:41;;;;;;;2.55;1.25;;;41.40;28.40;;;;;;6299281;28;20560;-66
2021/08/06 08:59:44;;;;;;;2.97;1.70;;;40.20;28.80;;;;;;6299240;28;20225;-65
2021/08/06 09:02:47;;;;;;;1.65;1.52;;;38.70;30.90;;;;;;6299667;28;20230;-62
2021/08/06 09:05:52;;;;;;;2.63;1.30;;;36.70;33.20;;;;;;6285642;28;20223;-63
2021/08/06 09:09:12;;;;;;;2.60;1.63;;;35.40;35.30;;;;;;6271300;28;20320;-66
2021/08/06 09:12:15;;;;;;;2.00;1.50;;;34.00;37.00;;;;;;6273872;28;20569;-64
2021/08/06 09:15:39;;;;;;;1.90;1.77;;;32.80;38.90;;;;;;6273705;28;20230;-64
2021/08/06 09:18:42;;;;;;;2.00;1.50;;;32.10;40.20;;;;;;6274345;28;20235;-64
2021/08/06 09:21:47;;;;;;;1.95;1.52;;;31.30;41.20;;;;;;6273768;28;20227;-64
2021/08/06 09:25:12;;;;;;;3.40;1.57;;;30.90;42.20;;;;;;6250535;28;20231;-63
2021/08/06 09:28:15;;;;;;;2.00;1.80;;;30.00;44.50;;;;;;6248951;28;20208;-65
2021/08/06 09:31:18;;;;;;;3.13;1.93;;;29.80;45.30;;;;;;6249339;28;20540;-64
2021/08/06 09:34:24;;;;;;;1.93;1.43;;;29.60;45.70;;;;;;6248997;28;20314;-66
2021/08/06 09:37:36;;;;;;;1.80;1.40;;;29.40;45.70;;;;;;6247648;28;20609;-65
2021/08/06 09:40:40;;;;;;;2.27;1.67;;;29.10;45.50;;;;;;6260368;28;20226;-65
2021/08/06 09:43:43;;;;;;;2.00;1.10;;;29.10;46.00;;;;;;6272820;28;20223;-66
2021/08/06 09:46:46;;;;;;;2.00;1.80;;;29.00;44.90;;;;;;6273448;28;20265;-65
2021/08/06 09:49:52;;;;;;;1.97;1.77;;;28.90;44.90;;;;;;6273968;28;20241;-65
2021/08/06 09:52:57;;;;;;;2.33;2.10;;;28.80;46.20;;;;;;6265327;28;20233;-65
2021/08/06 09:56:01;;;;;;;1.53;1.40;;;29.00;44.90;;;;;;6272708;28;20277;-65
2021/08/06 09:59:04;;;;;;;2.13;1.43;;;29.30;45.10;;;;;;6274242;28;20231;-65
2021/08/06 10:02:26;;;;;;;1.87;1.77;;;29.60;44.30;;;;;;6273622;28;20237;-72
2021/08/06 10:05:32;;;;;;;2.03;1.73;;;29.20;44.80;;;;;;6273553;28;20324;-67
2021/08/06 10:08:38;;;;;;;2.37;1.90;;;29.00;45.30;;;;;;6249171;28;20223;-68
2021/08/06 10:11:41;;;;;;;1.90;1.63;;;29.20;44.90;;;;;;6249449;28;20236;-65
2021/08/06 10:14:44;;;;;;;2.20;1.50;;;29.30;44.40;;;;;;6248488;28;20301;-67
2021/08/06 10:17:48;;;;;;;7.83;2.30;;;29.30;44.40;;;;;;6249498;28;20269;-69
2021/08/06 10:20:52;;;;;;;2.33;2.13;;;29.30;45.50;;;;;;6248943;28;20235;-67
2021/08/06 10:23:57;;;;;;;1.63;1.30;;;29.20;44.80;;;;;;6259495;28;20219;-67
2021/08/06 10:27:01;;;;;;;2.30;1.90;;;28.70;45.70;;;;;;6278614;28;20227;-68
2021/08/06 10:30:08;;;;;;;2.90;1.90;;;28.50;46.70;;;;;;6278522;28;20612;-69
2021/08/06 10:33:19;;;;;;;2.10;1.90;;;28.50;45.80;;;;;;6278032;28;20967;-68
2021/08/06 10:36:39;;;;;;;3.53;1.40;;;28.50;46.60;;;;;;6278407;28;20265;-67
2021/08/06 10:39:44;;;;;;;2.03;1.83;;;28.60;46.30;;;;;;6277731;28;20231;-67
2021/08/06 10:42:47;;;;;;;2.57;1.83;;;28.90;46.40;;;;;;6260296;28;20250;-65
2021/08/06 10:45:56;;;;;;;2.20;2.00;;;29.30;46.70;;;;;;6256967;28;20246;-68
2021/08/06 10:49:10;;;;;;;2.03;1.53;;;29.60;45.50;;;;;;6275946;28;20702;-60
2021/08/06 10:52:16;;;;;;;2.33;1.90;;;29.50;45.40;;;;;;6274952;28;20227;-60
2021/08/06 10:55:21;;;;;;;2.10;1.90;;;29.60;46.00;;;;;;6282708;28;20218;-62
2021/08/06 10:58:52;;;;;;;3.83;2.07;;;29.80;45.40;;;;;;6289836;28;20193;-63
2021/08/06 11:01:55;;;;;;;3.50;2.23;;;30.20;45.00;;;;;;6301611;28;20222;-61
2021/08/06 11:04:59;;;;;;;2.03;1.77;;;30.50;44.50;;;;;;6298941;28;20226;-61
2021/08/06 11:08:54;;;;;;;2.40;2.20;;;30.20;44.70;;;;;;6299055;28;20282;-60
2021/08/06 11:12:00;;;;;;;1.90;1.60;;;30.00;45.20;;;;;;6298911;28;20241;-61
2021/08/06 11:15:04;;;;;;;2.23;2.00;;;30.00;45.70;;;;;;6297853;28;20253;-62
2021/08/06 11:18:07;;;;;;;2.67;2.00;;;30.00;44.80;;;;;;6299692;28;20237;-62
2021/08/06 11:21:11;;;;;;;4.20;2.53;;;30.20;44.00;;;;;;6302006;28;20226;-63
2021/08/06 11:24:14;;;;;;;2.67;2.20;;;30.40;44.30;;;;;;6302241;28;20559;-62
2021/08/06 11:27:20;;;;;;;2.00;1.80;;;30.50;43.80;;;;;;6302226;28;20226;-62
2021/08/06 11:30:26;;;;;;;3.33;2.63;;;30.70;43.40;;;;;;6301983;28;20234;-62
2021/08/06 11:33:29;;;;;;;4.43;2.40;;;30.60;43.30;;;;;;6300835;28;20230;-60
2021/08/06 11:36:33;;;;;;;2.30;2.10;;;30.50;43.40;;;;;;6301953;28;20230;-63
2021/08/06 11:39:36;;;;;;;2.50;2.30;;;30.60;45.10;;;;;;6302161;28;20226;-64
2021/08/06 11:42:41;;;;;;;2.57;2.37;;;30.90;43.70;;;;;;6301517;28;20230;-64
2021/08/06 11:45:46;;;;;;;2.40;1.83;;;31.10;43.20;;;;;;6302001;28;20610;-65
2021/08/06 11:48:51;;;;;;;2.20;1.83;;;31.00;42.40;;;;;;6301535;28;20230;-67
2021/08/06 11:51:58;;;;;;;1.80;1.70;;;30.90;42.60;;;;;;6301680;28;20237;-66
2021/08/06 11:55:01;;;;;;;3.90;2.67;;;30.50;43.60;;;;;;6301159;28;20226;-64
2021/08/06 11:58:05;;;;;;;2.10;1.93;;;29.50;44.60;;;;;;6301516;28;20241;-65
2021/08/06 12:01:10;;;;;;;2.60;2.40;;;29.40;45.50;;;;;;6301181;28;20264;-65
2021/08/06 12:04:13;;;;;;;1.90;1.80;;;29.50;45.40;;;;;;6301278;28;20230;-65
2021/08/06 12:07:25;;;;;;;2.20;2.00;;;29.30;45.40;;;;;;6300685;28;20222;-65
2021/08/06 12:10:29;;;;;;;3.60;1.80;;;29.20;45.50;;;;;;6301467;28;20233;-65
2021/08/06 12:13:35;;;;;;;3.50;2.50;;;29.10;45.80;;;;;;6300968;28;20218;-65
2021/08/06 12:16:40;;;;;;;3.03;2.40;;;29.20;45.30;;;;;;6300866;28;20540;-65
2021/08/06 12:19:47;;;;;;;2.23;2.03;;;29.50;45.70;;;;;;6300655;28;20653;-65
2021/08/06 12:22:53;;;;;;;1.97;1.77;;;29.80;45.40;;;;;;6300952;28;20237;-65
2021/08/06 12:26:19;;;;;;;2.40;2.20;;;29.90;45.00;;;;;;6300727;28;20237;-65
2021/08/06 12:29:28;;;;;;;2.13;1.93;;;30.00;44.50;;;;;;6297166;28;20226;-65
2021/08/06 12:32:33;;;;;;;2.07;1.90;;;30.20;44.70;;;;;;6300494;28;20230;-65
2021/08/06 12:35:36;;;;;;;2.83;2.13;;;30.10;44.20;;;;;;6300514;28;20245;-65
2021/08/06 12:38:39;;;;;;;2.53;2.33;;;30.20;45.10;;;;;;6300648;28;20756;-65
2021/08/06 12:41:44;;;;;;;2.43;2.00;;;30.10;45.60;;;;;;6300744;28;20249;-65
2021/08/06 12:44:56;;;;;;;2.57;2.37;;;29.90;45.60;;;;;;6300292;28;20234;-66
2021/08/06 12:48:04;;;;;;;2.37;2.17;;;29.60;46.60;;;;;;6299893;28;20544;-66
2021/08/06 12:51:20;;;;;;;2.40;2.20;;;29.50;46.70;;;;;;6299932;28;20687;-65
2021/08/06 12:54:46;;;;;;;2.40;2.20;;;29.30;47.50;;;;;;6300215;28;20239;-66
2021/08/06 12:57:51;;;;;;;1.80;1.70;;;29.10;47.50;;;;;;6299459;28;20234;-66
2021/08/06 13:00:58;;;;;;;1.97;1.77;;;28.90;47.80;;;;;;6300021;28;20226;-66
2021/08/06 13:04:01;;;;;;;2.77;2.00;;;28.70;47.80;;;;;;6299705;28;20234;-66
2021/08/06 13:07:06;;;;;;;4.80;2.10;;;28.50;48.30;;;;;;6300087;28;20217;-66
2021/08/06 13:10:25;;;;;;;2.80;2.57;;;28.20;49.40;;;;;;6299594;28;20230;-65
2021/08/06 13:13:31;;;;;;;3.73;3.33;;;27.90;53.20;;;;;;6299565;28;20222;-65
2021/08/06 13:16:35;;;;;;;4.20;2.87;;;26.90;64.20;;;;;;6299143;28;20773;-65
2021/08/06 13:19:39;;;;;;;3.20;2.40;;;26.00;69.50;;;;;;6299749;28;20260;-64
2021/08/06 13:22:42;;;;;;;3.17;2.70;;;25.30;72.10;;;;;;6299619;28;20230;-65
2021/08/06 13:25:46;;;;;;;2.83;2.53;;;24.70;77.30;;;;;;6299836;28;20292;-65
2021/08/06 13:28:49;;;;;;;5.10;2.93;;;24.30;80.40;;;;;;6299582;28;20218;-65
2021/08/06 13:31:54;;;;;;;3.83;2.30;;;23.80;83.20;;;;;;6299724;28;20227;-65
2021/08/06 13:34:57;;;;;;;3.10;2.33;;;23.60;89.80;;;;;;6299000;28;20694;-65
2021/08/06 13:38:00;;;;;;;2.97;2.67;;;23.40;92.20;;;;;;6299412;28;20238;-66
2021/08/06 13:41:04;;;;;;;3.23;2.93;;;23.40;93.80;;;;;;6299404;28;20226;-65
2021/08/06 13:44:07;;;;;;;3.70;2.40;;;23.30;94.50;;;;;;6299466;28;20226;-66
2021/08/06 13:47:12;;;;;;;5.07;3.00;;;23.50;96.70;;;;;;6299085;28;20249;-66
2021/08/06 13:50:16;;;;;;;3.90;2.60;;;23.60;97.20;;;;;;6299464;28;20227;-66
2021/08/06 13:53:19;;;;;;;3.10;2.43;;;23.60;97.10;;;;;;6299346;28;20668;-65
2021/08/06 13:56:22;;;;;;;2.90;2.00;;;23.70;97.60;;;;;;6298726;28;20230;-65
2021/08/06 13:59:26;;;;;;;4.90;2.10;;;23.80;98.50;;;;;;6302542;28;20238;-65
2021/08/06 14:02:30;;;;;;;1.70;1.60;;;24.00;97.30;;;;;;6304070;28;20230;-65
2021/08/06 14:05:33;;;;;;;2.83;1.90;;;24.20;96.20;;;;;;6304479;28;20230;-65
2021/08/06 14:08:38;;;;;;;1.80;1.70;;;24.30;96.10;;;;;;6304037;28;20333;-65
2021/08/06 14:11:42;;;;;;;2.60;1.53;;;24.20;94.40;;;;;;6304191;28;20231;-65
2021/08/06 14:14:45;;;;;;;2.37;1.70;;;24.10;94.10;;;;;;6303267;28;20245;-65
2021/08/06 14:17:52;;;;;;;2.70;1.87;;;24.00;94.70;;;;;;6303796;28;20739;-65
2021/08/06 14:20:56;;;;;;;1.83;1.70;;;24.00;96.70;;;;;;6303855;28;20230;-65
2021/08/06 14:23:59;;;;;;;2.33;1.90;;;23.90;95.30;;;;;;6303814;28;20241;-65
2021/08/06 14:27:02;;;;;;;2.10;1.90;;;23.90;96.40;;;;;;6303359;28;20567;-65
2021/08/06 14:30:06;;;;;;;2.30;1.77;;;23.90;96.60;;;;;;6303675;28;20234;-65
2021/08/06 14:33:11;;;;;;;3.23;2.17;;;23.80;96.30;;;;;;6303550;28;20234;-65
2021/08/06 14:36:14;;;;;;;2.97;1.57;;;23.70;96.40;;;;;;6303221;28;20566;-65
2021/08/06 14:39:18;;;;;;;3.43;2.33;;;23.80;95.60;;;;;;6303343;28;20702;-65
2021/08/06 14:42:21;;;;;;;2.10;1.87;;;23.90;96.30;;;;;;6302993;28;20237;-65
2021/08/06 14:45:36;;;;;;;2.43;1.93;;;23.90;95.80;;;;;;6303275;28;20234;-65
2021/08/06 14:48:41;;;;;;;2.90;1.90;;;24.10;96.10;;;;;;6302854;28;20254;-65
2021/08/06 14:51:44;;;;;;;3.17;2.07;;;24.30;95.90;;;;;;6302910;28;20234;-65
2021/08/06 14:54:47;;;;;;;1.77;1.50;;;24.40;95.20;;;;;;6302744;28;20227;-65
2021/08/06 14:57:50;;;;;;;1.10;1.00;;;24.60;94.40;;;;;;6302764;28;20231;-65
2021/08/06 15:00:53;;;;;;;2.60;1.70;;;24.70;93.30;;;;;;6302511;28;20579;-65
2021/08/06 15:03:58;;;;;;;3.50;2.20;;;24.70;93.50;;;;;;6302878;28;20245;-65
2021/08/06 15:07:01;;;;;;;1.80;1.20;;;24.80;93.70;;;;;;6302423;28;20238;-65
2021/08/06 15:10:06;;;;;;;1.70;1.40;;;24.80;93.30;;;;;;6302237;28;20235;-66
2021/08/06 15:13:27;;;;;;;1.60;1.50;;;24.80;93.40;;;;;;6302456;28;20223;-66
2021/08/06 15:16:31;;;;;;;1.60;1.07;;;24.80;94.30;;;;;;6302483;28;20235;-65
2021/08/06 15:19:36;;;;;;;1.43;1.13;;;24.90;93.60;;;;;;6302586;28;20230;-65
2021/08/06 15:22:39;;;;;;;2.07;1.33;;;24.90;93.30;;;;;;6302696;28;20280;-65
2021/08/06 15:25:43;;;;;;;2.70;1.57;;;24.80;93.20;;;;;;6301853;28;20269;-66
2021/08/06 15:28:46;;;;;;;2.67;1.50;;;24.80;93.20;;;;;;6302210;28;20230;-65
2021/08/06 15:31:49;;;;;;;1.77;1.20;;;24.80;92.80;;;;;;6302090;28;20223;-65
2021/08/06 15:34:54;;;;;;;1.73;1.50;;;24.80;91.20;;;;;;6302337;28;20231;-66
2021/08/06 15:37:57;;;;;;;1.60;1.30;;;24.80;89.40;;;;;;6302183;28;20231;-65
2021/08/06 15:41:00;;;;;;;1.40;1.30;;;24.90;87.90;;;;;;6301936;28;20226;-65
2021/08/06 15:44:04;;;;;;;1.30;1.20;;;24.90;87.00;;;;;;6301946;28;20226;-63
2021/08/06 15:47:08;;;;;;;1.63;1.47;;;24.70;89.10;;;;;;6301888;28;20233;-65
2021/08/06 15:50:13;;;;;;;2.77;1.30;;;24.80;89.10;;;;;;6302012;28;20241;-65
2021/08/06 15:53:16;;;;;;;1.60;1.50;;;24.90;89.80;;;;;;6301434;28;20230;-65
2021/08/06 15:56:20;;;;;;;1.47;1.37;;;25.00;89.50;;;;;;6301615;28;20231;-65
2021/08/06 15:59:23;;;;;;;2.20;2.00;;;25.00;90.50;;;;;;6301240;28;20227;-65
2021/08/06 16:02:26;;;;;;;1.80;1.60;;;25.00;89.10;;;;;;6301523;28;20231;-65
2021/08/06 16:05:31;;;;;;;2.30;2.10;;;25.10;90.10;;;;;;6301216;28;20284;-64